createdAt,value
2016-10-16T00:00:35.833Z,1012.62
2016-10-16T00:05:32.196Z,1012.56
2016-10-16T00:15:28.845Z,1012.74
2016-10-16T00:25:34.350Z,1012.79
2016-10-16T00:30:30.163Z,1012.75
2016-10-16T00:35:26.855Z,1012.88
2016-10-16T00:45:24.121Z,1012.86
2016-10-16T00:50:20.267Z,1012.87
2016-10-16T00:55:18.322Z,1012.80
2016-10-16T01:00:14.633Z,1012.76
2016-10-16T01:05:11.753Z,1012.75
2016-10-16T01:10:07.963Z,1012.65
2016-10-16T01:15:04.842Z,1012.80
2016-10-16T01:20:01.233Z,1012.76
2016-10-16T01:24:57.866Z,1012.73
2016-10-16T01:29:55.443Z,1012.80
2016-10-16T01:34:51.984Z,1012.81
2016-10-16T01:39:48.600Z,1012.90
2016-10-16T01:44:45.021Z,1012.96
2016-10-16T01:49:43.554Z,1012.98
2016-10-16T01:54:42.694Z,1013.01
2016-10-16T01:59:40.888Z,1013.06
2016-10-16T02:04:37.525Z,1013.11
2016-10-16T02:14:37.602Z,1013.22
2016-10-16T02:19:38.024Z,1013.21
2016-10-16T02:24:33.569Z,1013.25
2016-10-16T02:29:31.262Z,1013.35
2016-10-16T02:39:32.476Z,1013.40
2016-10-16T02:44:32.204Z,1013.32
2016-10-16T02:54:30.249Z,1013.45
2016-10-16T02:59:28.081Z,1013.47
2016-10-16T03:24:33.400Z,1013.61
2016-10-16T03:29:32.490Z,1013.54
2016-10-16T03:39:33.481Z,1013.40
2016-10-16T03:44:29.626Z,1013.47
2016-10-16T03:54:28.702Z,1013.46
2016-10-16T03:59:27.973Z,1013.50
2016-10-16T04:04:23.694Z,1013.41
2016-10-16T04:09:20.276Z,1013.42
2016-10-16T04:14:18.363Z,1013.33
2016-10-16T04:19:16.702Z,1013.38
2016-10-16T04:24:15.360Z,1013.42
2016-10-16T04:29:11.929Z,1013.42
2016-10-16T04:34:08.433Z,1013.55
2016-10-16T04:39:05.503Z,1013.54
2016-10-16T04:44:03.342Z,1013.51
2016-10-16T04:54:02.854Z,1013.56
2016-10-16T05:09:01.599Z,1013.63
2016-10-16T05:14:01.628Z,1013.65
2016-10-16T05:18:57.558Z,1013.58
2016-10-16T05:23:54.111Z,1013.62
2016-10-16T05:28:52.002Z,1013.60
2016-10-16T05:33:49.569Z,1013.70
2016-10-16T05:38:47.249Z,1013.76
2016-10-16T05:43:47.439Z,1013.83
2016-10-16T05:48:43.530Z,1013.76
2016-10-16T05:53:40.043Z,1013.68
2016-10-16T05:58:37.864Z,1013.82
2016-10-16T06:03:35.747Z,1013.72
2016-10-16T06:13:37.310Z,1013.92
2016-10-16T06:18:33.570Z,1013.91
2016-10-16T06:23:34.420Z,1013.74
2016-10-16T06:28:30.482Z,1013.76
2016-10-16T06:33:27.054Z,1013.86
2016-10-16T06:38:24.854Z,1013.78
2016-10-16T06:43:21.704Z,1013.78
2016-10-16T06:48:18.739Z,1013.77
2016-10-16T06:58:17.706Z,1013.84
2016-10-16T07:03:14.285Z,1013.94
2016-10-16T07:08:10.440Z,1013.89
2016-10-16T07:13:06.994Z,1013.97
2016-10-16T07:18:03.969Z,1013.94
2016-10-16T07:23:00.484Z,1014.01
2016-10-16T07:27:57.143Z,1014.04
2016-10-16T07:32:53.682Z,1014.08
2016-10-16T07:37:50.408Z,1014.06
2016-10-16T07:42:47.029Z,1014.07
2016-10-16T07:47:43.413Z,1014.08
2016-10-16T07:52:40.665Z,1014.11
2016-10-16T07:57:37.203Z,1014.32
2016-10-16T08:02:34.009Z,1014.23
2016-10-16T08:07:31.666Z,1014.23
2016-10-16T08:12:28.069Z,1014.10
2016-10-16T08:17:24.839Z,1014.03
2016-10-16T08:22:21.568Z,1014.17
2016-10-16T08:27:18.147Z,1014.31
2016-10-16T08:32:14.799Z,1014.35
2016-10-16T08:37:12.004Z,1014.43
2016-10-16T08:42:08.682Z,1014.34
2016-10-16T08:47:04.993Z,1014.27
2016-10-16T08:52:01.908Z,1014.39
2016-10-16T08:56:58.689Z,1014.43
2016-10-16T09:01:55.508Z,1014.32
2016-10-16T09:06:52.950Z,1014.33
2016-10-16T09:11:49.587Z,1014.30
2016-10-16T09:16:46.332Z,1014.32
2016-10-16T09:21:46.150Z,1014.37
2016-10-16T09:26:42.317Z,1014.26
2016-10-16T09:31:39.442Z,1014.22
2016-10-16T09:36:36.284Z,1014.21
2016-10-16T09:41:33.014Z,1014.19
2016-10-16T09:46:29.593Z,1014.37
2016-10-16T09:51:26.575Z,1014.39
2016-10-16T09:56:23.093Z,1014.40
2016-10-16T10:01:19.956Z,1014.47
2016-10-16T10:06:16.483Z,1014.44
2016-10-16T10:11:13.398Z,1014.49
2016-10-16T10:16:10.160Z,1014.39
2016-10-16T10:21:06.914Z,1014.37
2016-10-16T10:26:03.798Z,1014.37
2016-10-16T10:31:00.555Z,1014.42
2016-10-16T10:35:59.977Z,1014.37
2016-10-16T10:40:56.496Z,1014.35
2016-10-16T10:45:53.478Z,1014.34
2016-10-16T10:50:53.081Z,1014.31
2016-10-16T10:55:50.961Z,1014.30
2016-10-16T11:00:49.288Z,1014.33
2016-10-16T11:05:47.369Z,1014.20
2016-10-16T11:10:45.154Z,1014.11
2016-10-16T11:15:42.499Z,1014.26
2016-10-16T11:20:40.227Z,1014.18
2016-10-16T11:25:37.424Z,1014.09
2016-10-16T11:30:34.426Z,1014.10
2016-10-16T11:35:32.914Z,1014.15
2016-10-16T11:40:29.695Z,1014.05
2016-10-16T11:45:25.519Z,1014.13
2016-10-16T11:50:21.970Z,1014.05
2016-10-16T11:55:18.261Z,1013.92
2016-10-16T12:00:14.741Z,1013.84
2016-10-16T12:05:11.322Z,1013.96
2016-10-16T12:10:07.930Z,1013.85
2016-10-16T12:15:05.040Z,1013.85
2016-10-16T12:20:01.456Z,1013.72
2016-10-16T12:24:57.955Z,1013.69
2016-10-16T12:29:54.542Z,1013.73
2016-10-16T12:34:51.219Z,1013.66
2016-10-16T12:39:47.804Z,1013.66
2016-10-16T12:44:44.382Z,1013.65
2016-10-16T12:49:41.685Z,1013.67
2016-10-16T12:54:38.472Z,1013.66
2016-10-16T12:59:34.883Z,1013.68
2016-10-16T13:04:31.543Z,1013.70
2016-10-16T13:09:27.935Z,1013.61
2016-10-16T13:14:24.748Z,1013.64
2016-10-16T13:19:21.672Z,1013.65
2016-10-16T13:24:18.688Z,1013.63
2016-10-16T13:29:15.326Z,1013.66
2016-10-16T13:34:11.857Z,1013.68
2016-10-16T13:39:09.142Z,1013.62
2016-10-16T13:44:06.991Z,1013.52
2016-10-16T13:49:03.416Z,1013.49
2016-10-16T13:54:00.059Z,1013.49
2016-10-16T13:58:57.056Z,1013.41
2016-10-16T14:03:53.310Z,1013.44
2016-10-16T14:08:50.692Z,1013.53
2016-10-16T14:13:47.167Z,1013.48
2016-10-16T14:18:43.685Z,1013.47
2016-10-16T14:23:40.216Z,1013.42
2016-10-16T14:28:36.597Z,1013.39
2016-10-16T14:33:34.181Z,1013.32
2016-10-16T14:38:30.664Z,1013.29
2016-10-16T14:43:27.275Z,1013.25
2016-10-16T14:48:23.866Z,1013.21
2016-10-16T14:53:23.038Z,1013.36
2016-10-16T14:58:19.104Z,1013.29
2016-10-16T15:03:15.625Z,1013.27
2016-10-16T15:08:12.245Z,1013.35
2016-10-16T15:13:08.969Z,1013.43
2016-10-16T15:18:05.600Z,1013.42
2016-10-16T15:23:02.035Z,1013.40
2016-10-16T15:27:58.706Z,1013.40
2016-10-16T15:32:55.026Z,1013.35
2016-10-16T15:37:52.420Z,1013.38
2016-10-16T15:42:49.281Z,1013.37
2016-10-16T15:47:45.640Z,1013.34
2016-10-16T15:52:42.470Z,1013.40
2016-10-16T15:57:38.821Z,1013.36
2016-10-16T16:02:35.166Z,1013.43
2016-10-16T16:07:31.698Z,1013.36
2016-10-16T16:12:35.048Z,1013.39
2016-10-16T16:17:31.822Z,1013.51
2016-10-16T16:22:28.115Z,1013.40
2016-10-16T16:27:25.861Z,1013.37
2016-10-16T16:32:21.896Z,1013.46
2016-10-16T16:37:18.162Z,1013.45
2016-10-16T16:42:17.102Z,1013.46
2016-10-16T16:47:12.860Z,1013.42
2016-10-16T16:52:09.418Z,1013.49
2016-10-16T16:57:05.863Z,1013.53
2016-10-16T17:02:02.236Z,1013.63
2016-10-16T17:06:58.652Z,1013.59
2016-10-16T17:11:55.544Z,1013.62
2016-10-16T17:16:51.672Z,1013.64
2016-10-16T17:21:48.521Z,1013.61
2016-10-16T17:26:44.890Z,1013.73
2016-10-16T17:31:42.636Z,1013.67
2016-10-16T17:36:39.625Z,1013.66
2016-10-16T17:41:36.096Z,1013.71
2016-10-16T17:46:32.697Z,1013.81
2016-10-16T17:51:29.251Z,1013.74
2016-10-16T17:56:25.758Z,1013.67
2016-10-16T18:01:22.563Z,1013.75
2016-10-16T18:06:19.531Z,1013.59
2016-10-16T18:11:15.941Z,1013.63
2016-10-16T18:16:12.603Z,1013.61
2016-10-16T18:21:09.005Z,1013.66
2016-10-16T18:26:05.453Z,1013.69
2016-10-16T18:31:02.014Z,1013.66
2016-10-16T18:35:58.464Z,1013.53
2016-10-16T18:40:54.773Z,1013.59
2016-10-16T18:45:51.290Z,1013.59
2016-10-16T18:50:47.670Z,1013.62
2016-10-16T18:55:44.185Z,1013.64
2016-10-16T19:00:41.192Z,1013.63
2016-10-16T19:05:38.765Z,1013.68
2016-10-16T19:10:34.968Z,1013.68
2016-10-16T19:15:32.011Z,1013.62
2016-10-16T19:20:29.050Z,1013.58
2016-10-16T19:25:25.504Z,1013.70
2016-10-16T19:30:21.983Z,1013.67
2016-10-16T19:35:18.551Z,1013.70
2016-10-16T19:40:14.914Z,1013.69
2016-10-16T19:45:11.374Z,1013.75
2016-10-16T19:50:08.297Z,1013.70
2016-10-16T19:55:05.219Z,1013.66
2016-10-16T20:00:01.638Z,1013.79
2016-10-16T20:04:58.139Z,1013.67
2016-10-16T20:09:54.622Z,1013.69
2016-10-16T20:14:53.620Z,1013.72
2016-10-16T20:19:53.956Z,1013.75
2016-10-16T20:24:49.579Z,1013.81
2016-10-16T20:29:45.741Z,1013.92
2016-10-16T20:34:42.141Z,1013.88
2016-10-16T20:39:38.727Z,1013.91
2016-10-16T20:44:36.759Z,1013.97
2016-10-16T20:49:33.020Z,1013.94
2016-10-16T20:54:29.365Z,1013.89
2016-10-16T20:59:25.860Z,1013.97
2016-10-16T21:04:22.305Z,1013.96
2016-10-16T21:09:18.730Z,1014.05
2016-10-16T21:14:15.283Z,1013.98
2016-10-16T21:19:11.961Z,1013.98
2016-10-16T21:24:08.786Z,1014.09
2016-10-16T21:29:05.284Z,1014.12
2016-10-16T21:34:02.707Z,1014.11
2016-10-16T21:38:58.886Z,1014.15
2016-10-16T21:43:55.429Z,1013.99
2016-10-16T21:48:54.391Z,1014.00
2016-10-16T21:53:50.835Z,1014.02
2016-10-16T21:58:47.309Z,1014.03
2016-10-16T22:03:43.731Z,1014.04
2016-10-16T22:08:40.058Z,1014.08
2016-10-16T22:13:36.567Z,1014.05
2016-10-16T22:18:33.386Z,1014.01
2016-10-16T22:23:29.869Z,1013.94
2016-10-16T22:28:26.228Z,1013.96
2016-10-16T22:33:24.274Z,1013.96
2016-10-16T22:38:20.433Z,1013.98
2016-10-16T22:43:16.697Z,1013.87
2016-10-16T22:48:13.137Z,1013.77
2016-10-16T22:53:09.934Z,1013.70
2016-10-16T22:58:06.545Z,1013.73
2016-10-16T23:03:04.438Z,1013.73
2016-10-16T23:08:00.677Z,1013.79
2016-10-16T23:12:57.915Z,1013.78
2016-10-16T23:17:54.479Z,1013.83
2016-10-16T23:22:51.425Z,1013.83
2016-10-16T23:27:49.309Z,1013.74
2016-10-16T23:32:45.777Z,1013.83
2016-10-16T23:37:42.308Z,1013.74
2016-10-16T23:42:38.361Z,1013.85
2016-10-16T23:47:34.795Z,1013.76
2016-10-16T23:52:31.586Z,1013.69
2016-10-16T23:57:28.257Z,1013.66
